sensor_id;sensor_type;location;lat;lon;timestamp;P1;durP1;ratioP1;P2;durP2;ratioP2
19623;SDS011;9959;49.798;9.928;2024-02-26T00:00:17;11.40;;;5.90;;
19623;SDS011;9959;49.798;9.928;2024-02-26T00:02:46;15.68;;;8.57;;
19623;SDS011;9959;49.798;9.928;2024-02-26T00:05:12;17.10;;;8.65;;
19623;SDS011;9959;49.798;9.928;2024-02-26T00:07:41;16.88;;;8.50;;
19623;SDS011;9959;49.798;9.928;2024-02-26T00:10:08;15.02;;;8.13;;
19623;SDS011;9959;49.798;9.928;2024-02-26T00:12:35;17.60;;;7.90;;
19623;SDS011;9959;49.798;9.928;2024-02-26T00:15:02;18.50;;;8.60;;
19623;SDS011;9959;49.798;9.928;2024-02-26T00:17:30;20.88;;;8.25;;
19623;SDS011;9959;49.798;9.928;2024-02-26T00:19:57;20.60;;;8.80;;
19623;SDS011;9959;49.798;9.928;2024-02-26T00:22:24;22.65;;;9.10;;
19623;SDS011;9959;49.798;9.928;2024-02-26T00:24:51;23.08;;;8.88;;
19623;SDS011;9959;49.798;9.928;2024-02-26T00:27:18;15.80;;;8.60;;
19623;SDS011;9959;49.798;9.928;2024-02-26T00:29:45;20.75;;;8.93;;
19623;SDS011;9959;49.798;9.928;2024-02-26T00:32:12;19.83;;;9.65;;
19623;SDS011;9959;49.798;9.928;2024-02-26T00:34:39;19.63;;;8.30;;
19623;SDS011;9959;49.798;9.928;2024-02-26T00:37:06;16.35;;;8.38;;
19623;SDS011;9959;49.798;9.928;2024-02-26T00:39:33;16.38;;;8.25;;
19623;SDS011;9959;49.798;9.928;2024-02-26T00:42:00;18.95;;;8.63;;
19623;SDS011;9959;49.798;9.928;2024-02-26T00:44:27;18.75;;;9.32;;
19623;SDS011;9959;49.798;9.928;2024-02-26T00:46:54;18.90;;;8.88;;
19623;SDS011;9959;49.798;9.928;2024-02-26T00:49:21;20.02;;;8.75;;
19623;SDS011;9959;49.798;9.928;2024-02-26T00:51:48;16.98;;;8.57;;
19623;SDS011;9959;49.798;9.928;2024-02-26T00:54:15;16.83;;;9.40;;
19623;SDS011;9959;49.798;9.928;2024-02-26T00:56:42;21.13;;;9.27;;
19623;SDS011;9959;49.798;9.928;2024-02-26T00:59:09;15.82;;;8.95;;
19623;SDS011;9959;49.798;9.928;2024-02-26T01:01:36;15.93;;;8.63;;
19623;SDS011;9959;49.798;9.928;2024-02-26T01:04:03;19.70;;;9.20;;
19623;SDS011;9959;49.798;9.928;2024-02-26T01:06:30;18.40;;;9.38;;
19623;SDS011;9959;49.798;9.928;2024-02-26T01:08:58;16.10;;;8.80;;
19623;SDS011;9959;49.798;9.928;2024-02-26T01:11:25;19.40;;;8.65;;
19623;SDS011;9959;49.798;9.928;2024-02-26T01:13:52;16.40;;;9.63;;
19623;SDS011;9959;49.798;9.928;2024-02-26T01:16:23;17.80;;;9.00;;
19623;SDS011;9959;49.798;9.928;2024-02-26T01:18:50;17.25;;;9.57;;
19623;SDS011;9959;49.798;9.928;2024-02-26T01:21:17;19.38;;;9.90;;
19623;SDS011;9959;49.798;9.928;2024-02-26T01:23:44;20.27;;;9.75;;
19623;SDS011;9959;49.798;9.928;2024-02-26T01:26:15;19.60;;;9.73;;
19623;SDS011;9959;49.798;9.928;2024-02-26T01:28:42;17.38;;;9.55;;
19623;SDS011;9959;49.798;9.928;2024-02-26T01:31:09;24.08;;;9.35;;
19623;SDS011;9959;49.798;9.928;2024-02-26T01:33:36;16.33;;;9.25;;
19623;SDS011;9959;49.798;9.928;2024-02-26T01:36:03;17.13;;;8.35;;
19623;SDS011;9959;49.798;9.928;2024-02-26T01:38:30;17.30;;;8.18;;
19623;SDS011;9959;49.798;9.928;2024-02-26T01:40:57;20.33;;;9.43;;
19623;SDS011;9959;49.798;9.928;2024-02-26T01:43:24;19.45;;;9.93;;
19623;SDS011;9959;49.798;9.928;2024-02-26T01:45:51;17.33;;;8.68;;
19623;SDS011;9959;49.798;9.928;2024-02-26T01:48:18;20.35;;;9.00;;
19623;SDS011;9959;49.798;9.928;2024-02-26T01:50:45;15.23;;;8.57;;
19623;SDS011;9959;49.798;9.928;2024-02-26T01:53:13;22.10;;;9.07;;
19623;SDS011;9959;49.798;9.928;2024-02-26T01:55:41;20.50;;;9.02;;
19623;SDS011;9959;49.798;9.928;2024-02-26T01:58:08;24.17;;;9.35;;
19623;SDS011;9959;49.798;9.928;2024-02-26T02:00:36;16.88;;;9.18;;
19623;SDS011;9959;49.798;9.928;2024-02-26T02:03:03;19.08;;;9.63;;
19623;SDS011;9959;49.798;9.928;2024-02-26T02:05:31;18.58;;;8.93;;
19623;SDS011;9959;49.798;9.928;2024-02-26T02:08:00;17.17;;;8.63;;
19623;SDS011;9959;49.798;9.928;2024-02-26T02:10:27;19.85;;;9.15;;
19623;SDS011;9959;49.798;9.928;2024-02-26T02:12:54;19.55;;;10.00;;
19623;SDS011;9959;49.798;9.928;2024-02-26T02:15:21;15.15;;;8.40;;
19623;SDS011;9959;49.798;9.928;2024-02-26T02:17:48;15.32;;;9.35;;
19623;SDS011;9959;49.798;9.928;2024-02-26T02:20:16;16.75;;;9.05;;
19623;SDS011;9959;49.798;9.928;2024-02-26T02:22:45;17.73;;;9.77;;
19623;SDS011;9959;49.798;9.928;2024-02-26T02:25:12;15.90;;;8.73;;
19623;SDS011;9959;49.798;9.928;2024-02-26T02:27:40;17.45;;;9.25;;
19623;SDS011;9959;49.798;9.928;2024-02-26T02:30:09;14.10;;;8.55;;
19623;SDS011;9959;49.798;9.928;2024-02-26T02:32:37;18.00;;;8.77;;
19623;SDS011;9959;49.798;9.928;2024-02-26T02:35:07;16.58;;;9.27;;
19623;SDS011;9959;49.798;9.928;2024-02-26T02:37:34;15.35;;;8.40;;
19623;SDS011;9959;49.798;9.928;2024-02-26T02:40:01;16.35;;;8.23;;
19623;SDS011;9959;49.798;9.928;2024-02-26T02:42:28;17.20;;;8.43;;
19623;SDS011;9959;49.798;9.928;2024-02-26T02:44:55;17.00;;;8.85;;
19623;SDS011;9959;49.798;9.928;2024-02-26T02:47:22;19.52;;;8.63;;
19623;SDS011;9959;49.798;9.928;2024-02-26T02:49:49;17.33;;;8.80;;
19623;SDS011;9959;49.798;9.928;2024-02-26T02:52:16;19.73;;;8.48;;
19623;SDS011;9959;49.798;9.928;2024-02-26T02:54:43;15.20;;;8.85;;
19623;SDS011;9959;49.798;9.928;2024-02-26T02:57:10;17.48;;;8.13;;
19623;SDS011;9959;49.798;9.928;2024-02-26T02:59:37;16.40;;;8.27;;
19623;SDS011;9959;49.798;9.928;2024-02-26T03:02:04;20.60;;;9.43;;
19623;SDS011;9959;49.798;9.928;2024-02-26T03:04:31;16.20;;;8.43;;
19623;SDS011;9959;49.798;9.928;2024-02-26T03:06:59;17.17;;;8.63;;
19623;SDS011;9959;49.798;9.928;2024-02-26T03:09:27;16.73;;;7.43;;
19623;SDS011;9959;49.798;9.928;2024-02-26T03:11:54;17.88;;;8.55;;
19623;SDS011;9959;49.798;9.928;2024-02-26T03:14:21;15.80;;;7.88;;
19623;SDS011;9959;49.798;9.928;2024-02-26T03:16:48;17.30;;;8.15;;
19623;SDS011;9959;49.798;9.928;2024-02-26T03:19:15;14.05;;;7.53;;
19623;SDS011;9959;49.798;9.928;2024-02-26T03:21:45;13.90;;;7.05;;
19623;SDS011;9959;49.798;9.928;2024-02-26T03:24:12;14.85;;;6.38;;
19623;SDS011;9959;49.798;9.928;2024-02-26T03:26:39;11.35;;;5.45;;
19623;SDS011;9959;49.798;9.928;2024-02-26T03:29:06;7.20;;;4.40;;
19623;SDS011;9959;49.798;9.928;2024-02-26T03:31:33;9.43;;;4.38;;
19623;SDS011;9959;49.798;9.928;2024-02-26T03:34:00;7.55;;;4.03;;
19623;SDS011;9959;49.798;9.928;2024-02-26T03:36:28;7.78;;;4.00;;
19623;SDS011;9959;49.798;9.928;2024-02-26T03:38:55;6.05;;;3.72;;
19623;SDS011;9959;49.798;9.928;2024-02-26T03:41:22;9.23;;;3.78;;
19623;SDS011;9959;49.798;9.928;2024-02-26T03:43:49;7.82;;;4.25;;
19623;SDS011;9959;49.798;9.928;2024-02-26T03:46:16;7.55;;;4.00;;
19623;SDS011;9959;49.798;9.928;2024-02-26T03:48:42;7.55;;;4.18;;
19623;SDS011;9959;49.798;9.928;2024-02-26T03:51:10;8.32;;;4.30;;
19623;SDS011;9959;49.798;9.928;2024-02-26T03:53:37;6.65;;;3.55;;
19623;SDS011;9959;49.798;9.928;2024-02-26T03:56:04;11.65;;;4.35;;
19623;SDS011;9959;49.798;9.928;2024-02-26T03:58:35;6.85;;;3.85;;
19623;SDS011;9959;49.798;9.928;2024-02-26T04:01:02;8.55;;;3.95;;
19623;SDS011;9959;49.798;9.928;2024-02-26T04:03:29;7.90;;;3.92;;
19623;SDS011;9959;49.798;9.928;2024-02-26T04:05:56;7.82;;;4.63;;
19623;SDS011;9959;49.798;9.928;2024-02-26T04:08:23;8.07;;;4.07;;
19623;SDS011;9959;49.798;9.928;2024-02-26T04:10:50;8.77;;;4.18;;
19623;SDS011;9959;49.798;9.928;2024-02-26T04:13:17;9.70;;;4.47;;
19623;SDS011;9959;49.798;9.928;2024-02-26T04:15:45;8.95;;;4.30;;
19623;SDS011;9959;49.798;9.928;2024-02-26T04:18:13;9.35;;;4.95;;
19623;SDS011;9959;49.798;9.928;2024-02-26T04:20:41;8.57;;;4.80;;
19623;SDS011;9959;49.798;9.928;2024-02-26T04:23:09;9.00;;;4.82;;
19623;SDS011;9959;49.798;9.928;2024-02-26T04:25:36;9.23;;;4.78;;
19623;SDS011;9959;49.798;9.928;2024-02-26T04:28:03;6.53;;;4.30;;
19623;SDS011;9959;49.798;9.928;2024-02-26T04:30:31;9.52;;;4.88;;
19623;SDS011;9959;49.798;9.928;2024-02-26T04:32:58;8.07;;;4.70;;
19623;SDS011;9959;49.798;9.928;2024-02-26T04:35:25;10.32;;;5.28;;
19623;SDS011;9959;49.798;9.928;2024-02-26T04:37:52;10.45;;;4.75;;
19623;SDS011;9959;49.798;9.928;2024-02-26T04:40:19;10.13;;;4.85;;
19623;SDS011;9959;49.798;9.928;2024-02-26T04:42:46;11.68;;;5.13;;
19623;SDS011;9959;49.798;9.928;2024-02-26T04:45:13;9.55;;;4.78;;
19623;SDS011;9959;49.798;9.928;2024-02-26T04:47:40;8.93;;;5.10;;
19623;SDS011;9959;49.798;9.928;2024-02-26T04:50:07;9.95;;;4.22;;
19623;SDS011;9959;49.798;9.928;2024-02-26T04:52:34;8.88;;;4.80;;
19623;SDS011;9959;49.798;9.928;2024-02-26T04:55:02;8.43;;;4.57;;
19623;SDS011;9959;49.798;9.928;2024-02-26T04:57:30;10.13;;;5.07;;
19623;SDS011;9959;49.798;9.928;2024-02-26T04:59:57;9.02;;;5.00;;
19623;SDS011;9959;49.798;9.928;2024-02-26T05:02:24;9.68;;;5.10;;
19623;SDS011;9959;49.798;9.928;2024-02-26T05:04:51;11.63;;;4.57;;
19623;SDS011;9959;49.798;9.928;2024-02-26T05:07:18;10.35;;;5.40;;
19623;SDS011;9959;49.798;9.928;2024-02-26T05:09:46;11.13;;;4.63;;
19623;SDS011;9959;49.798;9.928;2024-02-26T05:12:13;9.40;;;5.15;;
19623;SDS011;9959;49.798;9.928;2024-02-26T05:14:40;12.40;;;4.68;;
19623;SDS011;9959;49.798;9.928;2024-02-26T05:17:07;12.45;;;5.20;;
19623;SDS011;9959;49.798;9.928;2024-02-26T05:19:34;10.02;;;4.93;;
19623;SDS011;9959;49.798;9.928;2024-02-26T05:22:01;10.57;;;4.82;;
19623;SDS011;9959;49.798;9.928;2024-02-26T05:24:28;9.80;;;4.63;;
19623;SDS011;9959;49.798;9.928;2024-02-26T05:26:55;10.50;;;4.88;;
19623;SDS011;9959;49.798;9.928;2024-02-26T05:29:22;10.40;;;5.32;;
19623;SDS011;9959;49.798;9.928;2024-02-26T05:31:49;9.52;;;4.75;;
19623;SDS011;9959;49.798;9.928;2024-02-26T05:34:15;10.18;;;4.95;;
19623;SDS011;9959;49.798;9.928;2024-02-26T05:36:42;11.18;;;5.65;;
19623;SDS011;9959;49.798;9.928;2024-02-26T05:39:09;9.60;;;4.95;;
19623;SDS011;9959;49.798;9.928;2024-02-26T05:41:43;18.40;;;5.78;;
19623;SDS011;9959;49.798;9.928;2024-02-26T05:44:11;10.35;;;5.80;;
19623;SDS011;9959;49.798;9.928;2024-02-26T05:46:38;15.00;;;5.80;;
19623;SDS011;9959;49.798;9.928;2024-02-26T05:49:05;12.65;;;6.00;;
19623;SDS011;9959;49.798;9.928;2024-02-26T05:51:32;14.70;;;5.93;;
19623;SDS011;9959;49.798;9.928;2024-02-26T05:53:58;14.13;;;6.10;;
19623;SDS011;9959;49.798;9.928;2024-02-26T05:56:26;12.27;;;6.10;;
19623;SDS011;9959;49.798;9.928;2024-02-26T05:58:52;16.30;;;6.35;;
19623;SDS011;9959;49.798;9.928;2024-02-26T06:01:20;13.93;;;5.72;;
19623;SDS011;9959;49.798;9.928;2024-02-26T06:03:48;18.48;;;7.28;;
19623;SDS011;9959;49.798;9.928;2024-02-26T06:06:16;15.20;;;6.75;;
19623;SDS011;9959;49.798;9.928;2024-02-26T06:08:44;14.00;;;6.63;;
19623;SDS011;9959;49.798;9.928;2024-02-26T06:11:11;15.13;;;6.75;;
19623;SDS011;9959;49.798;9.928;2024-02-26T06:13:38;16.65;;;7.05;;
19623;SDS011;9959;49.798;9.928;2024-02-26T06:16:05;16.83;;;7.35;;
19623;SDS011;9959;49.798;9.928;2024-02-26T06:18:32;18.58;;;7.65;;
19623;SDS011;9959;49.798;9.928;2024-02-26T06:20:59;16.40;;;8.02;;
19623;SDS011;9959;49.798;9.928;2024-02-26T06:23:27;17.20;;;7.82;;
19623;SDS011;9959;49.798;9.928;2024-02-26T06:25:54;15.85;;;7.65;;
19623;SDS011;9959;49.798;9.928;2024-02-26T06:28:21;21.05;;;8.50;;
19623;SDS011;9959;49.798;9.928;2024-02-26T06:30:48;15.02;;;7.35;;
19623;SDS011;9959;49.798;9.928;2024-02-26T06:33:15;20.83;;;8.95;;
19623;SDS011;9959;49.798;9.928;2024-02-26T06:35:42;20.30;;;8.68;;
19623;SDS011;9959;49.798;9.928;2024-02-26T06:38:09;21.95;;;9.38;;
19623;SDS011;9959;49.798;9.928;2024-02-26T06:40:36;17.83;;;8.85;;
19623;SDS011;9959;49.798;9.928;2024-02-26T06:43:04;17.10;;;8.40;;
19623;SDS011;9959;49.798;9.928;2024-02-26T06:45:32;19.33;;;9.15;;
19623;SDS011;9959;49.798;9.928;2024-02-26T06:47:59;19.00;;;9.02;;
19623;SDS011;9959;49.798;9.928;2024-02-26T06:50:26;18.95;;;8.85;;
19623;SDS011;9959;49.798;9.928;2024-02-26T06:52:53;21.42;;;9.23;;
19623;SDS011;9959;49.798;9.928;2024-02-26T06:55:20;21.52;;;9.80;;
19623;SDS011;9959;49.798;9.928;2024-02-26T06:57:47;22.65;;;10.10;;
19623;SDS011;9959;49.798;9.928;2024-02-26T07:00:14;20.08;;;9.13;;
19623;SDS011;9959;49.798;9.928;2024-02-26T07:02:43;28.63;;;10.32;;
19623;SDS011;9959;49.798;9.928;2024-02-26T07:05:10;18.63;;;9.38;;
19623;SDS011;9959;49.798;9.928;2024-02-26T07:07:37;23.17;;;10.13;;
19623;SDS011;9959;49.798;9.928;2024-02-26T07:10:05;21.75;;;9.73;;
19623;SDS011;9959;49.798;9.928;2024-02-26T07:12:33;26.10;;;10.05;;
19623;SDS011;9959;49.798;9.928;2024-02-26T07:15:00;24.80;;;10.30;;
19623;SDS011;9959;49.798;9.928;2024-02-26T07:17:27;27.35;;;10.73;;
19623;SDS011;9959;49.798;9.928;2024-02-26T07:19:55;25.95;;;11.40;;
19623;SDS011;9959;49.798;9.928;2024-02-26T07:22:23;20.98;;;10.32;;
19623;SDS011;9959;49.798;9.928;2024-02-26T07:24:51;24.90;;;11.02;;
19623;SDS011;9959;49.798;9.928;2024-02-26T07:27:18;22.90;;;10.20;;
19623;SDS011;9959;49.798;9.928;2024-02-26T07:29:45;24.55;;;11.25;;
19623;SDS011;9959;49.798;9.928;2024-02-26T07:32:13;29.50;;;10.93;;
19623;SDS011;9959;49.798;9.928;2024-02-26T07:34:40;22.45;;;10.98;;
19623;SDS011;9959;49.798;9.928;2024-02-26T07:37:11;27.33;;;11.70;;
19623;SDS011;9959;49.798;9.928;2024-02-26T07:39:39;27.15;;;11.20;;
19623;SDS011;9959;49.798;9.928;2024-02-26T07:42:05;26.67;;;12.73;;
19623;SDS011;9959;49.798;9.928;2024-02-26T07:44:33;27.30;;;11.70;;
19623;SDS011;9959;49.798;9.928;2024-02-26T07:47:03;31.58;;;13.80;;
19623;SDS011;9959;49.798;9.928;2024-02-26T07:49:30;27.10;;;12.60;;
19623;SDS011;9959;49.798;9.928;2024-02-26T07:51:59;28.70;;;12.30;;
19623;SDS011;9959;49.798;9.928;2024-02-26T07:54:26;29.30;;;12.02;;
19623;SDS011;9959;49.798;9.928;2024-02-26T07:56:53;28.05;;;12.70;;
19623;SDS011;9959;49.798;9.928;2024-02-26T07:59:20;23.00;;;11.70;;
19623;SDS011;9959;49.798;9.928;2024-02-26T08:01:50;32.33;;;12.15;;
19623;SDS011;9959;49.798;9.928;2024-02-26T08:04:23;29.63;;;12.23;;
19623;SDS011;9959;49.798;9.928;2024-02-26T08:06:50;26.63;;;11.63;;
19623;SDS011;9959;49.798;9.928;2024-02-26T08:09:17;25.73;;;12.13;;
19623;SDS011;9959;49.798;9.928;2024-02-26T08:11:44;24.67;;;10.95;;
19623;SDS011;9959;49.798;9.928;2024-02-26T08:14:14;30.75;;;12.05;;
19623;SDS011;9959;49.798;9.928;2024-02-26T08:16:41;27.05;;;12.25;;
19623;SDS011;9959;49.798;9.928;2024-02-26T08:19:08;30.83;;;13.07;;
19623;SDS011;9959;49.798;9.928;2024-02-26T08:21:37;25.77;;;12.25;;
19623;SDS011;9959;49.798;9.928;2024-02-26T08:24:04;29.35;;;12.35;;
19623;SDS011;9959;49.798;9.928;2024-02-26T08:26:31;28.48;;;12.45;;
19623;SDS011;9959;49.798;9.928;2024-02-26T08:28:58;27.58;;;12.55;;
19623;SDS011;9959;49.798;9.928;2024-02-26T08:31:25;28.08;;;12.98;;
19623;SDS011;9959;49.798;9.928;2024-02-26T08:33:53;26.25;;;12.32;;
19623;SDS011;9959;49.798;9.928;2024-02-26T08:36:20;24.00;;;11.57;;
19623;SDS011;9959;49.798;9.928;2024-02-26T08:38:48;26.10;;;12.18;;
19623;SDS011;9959;49.798;9.928;2024-02-26T08:41:15;30.38;;;13.20;;
19623;SDS011;9959;49.798;9.928;2024-02-26T08:43:42;28.27;;;12.48;;
19623;SDS011;9959;49.798;9.928;2024-02-26T08:46:09;25.13;;;12.30;;
19623;SDS011;9959;49.798;9.928;2024-02-26T08:48:38;22.52;;;11.27;;
19623;SDS011;9959;49.798;9.928;2024-02-26T08:51:06;23.70;;;12.45;;
19623;SDS011;9959;49.798;9.928;2024-02-26T08:53:34;29.52;;;12.82;;
19623;SDS011;9959;49.798;9.928;2024-02-26T08:56:09;21.67;;;11.65;;
19623;SDS011;9959;49.798;9.928;2024-02-26T08:58:44;22.88;;;11.40;;
19623;SDS011;9959;49.798;9.928;2024-02-26T09:01:13;27.40;;;11.68;;
19623;SDS011;9959;49.798;9.928;2024-02-26T09:03:39;22.30;;;11.55;;
19623;SDS011;9959;49.798;9.928;2024-02-26T09:06:07;24.27;;;11.43;;
19623;SDS011;9959;49.798;9.928;2024-02-26T09:08:34;22.05;;;10.70;;
19623;SDS011;9959;49.798;9.928;2024-02-26T09:11:03;23.38;;;9.95;;
19623;SDS011;9959;49.798;9.928;2024-02-26T09:13:31;24.42;;;11.15;;
19623;SDS011;9959;49.798;9.928;2024-02-26T09:15:58;24.90;;;11.55;;
19623;SDS011;9959;49.798;9.928;2024-02-26T09:18:26;22.52;;;10.65;;
19623;SDS011;9959;49.798;9.928;2024-02-26T09:20:53;21.58;;;10.30;;
19623;SDS011;9959;49.798;9.928;2024-02-26T09:23:23;17.00;;;8.32;;
19623;SDS011;9959;49.798;9.928;2024-02-26T09:25:50;19.65;;;9.00;;
19623;SDS011;9959;49.798;9.928;2024-02-26T09:28:17;18.83;;;8.90;;
19623;SDS011;9959;49.798;9.928;2024-02-26T09:30:44;20.48;;;9.07;;
19623;SDS011;9959;49.798;9.928;2024-02-26T09:33:11;19.73;;;9.23;;
19623;SDS011;9959;49.798;9.928;2024-02-26T09:35:40;17.95;;;8.40;;
19623;SDS011;9959;49.798;9.928;2024-02-26T09:38:08;22.23;;;12.95;;
19623;SDS011;9959;49.798;9.928;2024-02-26T09:40:35;15.77;;;8.45;;
19623;SDS011;9959;49.798;9.928;2024-02-26T09:43:04;14.88;;;7.47;;
19623;SDS011;9959;49.798;9.928;2024-02-26T09:45:34;16.38;;;7.45;;
19623;SDS011;9959;49.798;9.928;2024-02-26T09:48:02;11.77;;;7.30;;
19623;SDS011;9959;49.798;9.928;2024-02-26T09:50:31;18.33;;;7.88;;
19623;SDS011;9959;49.798;9.928;2024-02-26T09:52:58;16.33;;;7.25;;
19623;SDS011;9959;49.798;9.928;2024-02-26T09:55:29;15.35;;;7.50;;
19623;SDS011;9959;49.798;9.928;2024-02-26T09:57:59;13.93;;;7.28;;
19623;SDS011;9959;49.798;9.928;2024-02-26T10:00:27;14.68;;;7.72;;
19623;SDS011;9959;49.798;9.928;2024-02-26T10:03:02;13.80;;;7.47;;
19623;SDS011;9959;49.798;9.928;2024-02-26T10:05:34;14.85;;;7.70;;
19623;SDS011;9959;49.798;9.928;2024-02-26T10:08:05;13.20;;;6.68;;
19623;SDS011;9959;49.798;9.928;2024-02-26T10:10:34;15.00;;;7.53;;
19623;SDS011;9959;49.798;9.928;2024-02-26T10:13:06;12.82;;;7.13;;
19623;SDS011;9959;49.798;9.928;2024-02-26T10:15:36;13.60;;;7.50;;
19623;SDS011;9959;49.798;9.928;2024-02-26T10:18:04;14.38;;;7.63;;
19623;SDS011;9959;49.798;9.928;2024-02-26T10:20:32;14.38;;;8.15;;
19623;SDS011;9959;49.798;9.928;2024-02-26T10:23:03;12.30;;;7.25;;
19623;SDS011;9959;49.798;9.928;2024-02-26T10:25:31;14.77;;;7.90;;
19623;SDS011;9959;49.798;9.928;2024-02-26T10:27:59;13.95;;;7.78;;
19623;SDS011;9959;49.798;9.928;2024-02-26T10:30:29;12.98;;;7.10;;
19623;SDS011;9959;49.798;9.928;2024-02-26T10:32:57;12.48;;;7.78;;
19623;SDS011;9959;49.798;9.928;2024-02-26T10:35:24;11.93;;;7.05;;
19623;SDS011;9959;49.798;9.928;2024-02-26T10:37:53;11.20;;;7.18;;
19623;SDS011;9959;49.798;9.928;2024-02-26T10:40:20;13.30;;;6.93;;
19623;SDS011;9959;49.798;9.928;2024-02-26T10:42:47;10.70;;;6.50;;
19623;SDS011;9959;49.798;9.928;2024-02-26T10:45:14;14.63;;;6.93;;
19623;SDS011;9959;49.798;9.928;2024-02-26T10:47:41;9.48;;;5.85;;
19623;SDS011;9959;49.798;9.928;2024-02-26T10:50:09;12.07;;;7.57;;
19623;SDS011;9959;49.798;9.928;2024-02-26T10:52:39;13.43;;;6.72;;
19623;SDS011;9959;49.798;9.928;2024-02-26T10:55:10;11.30;;;6.57;;
19623;SDS011;9959;49.798;9.928;2024-02-26T10:57:47;10.68;;;6.50;;
19623;SDS011;9959;49.798;9.928;2024-02-26T11:00:18;10.88;;;6.32;;
19623;SDS011;9959;49.798;9.928;2024-02-26T11:02:45;10.57;;;5.95;;
19623;SDS011;9959;49.798;9.928;2024-02-26T11:05:15;10.35;;;5.63;;
19623;SDS011;9959;49.798;9.928;2024-02-26T11:07:43;13.88;;;6.07;;
19623;SDS011;9959;49.798;9.928;2024-02-26T11:10:13;11.05;;;6.32;;
19623;SDS011;9959;49.798;9.928;2024-02-26T11:12:42;11.20;;;6.88;;
19623;SDS011;9959;49.798;9.928;2024-02-26T11:15:10;13.05;;;5.53;;
19623;SDS011;9959;49.798;9.928;2024-02-26T11:17:37;11.52;;;6.50;;
19623;SDS011;9959;49.798;9.928;2024-02-26T11:20:06;10.45;;;5.60;;
19623;SDS011;9959;49.798;9.928;2024-02-26T11:22:40;10.93;;;5.43;;
19623;SDS011;9959;49.798;9.928;2024-02-26T11:25:07;11.43;;;5.78;;
19623;SDS011;9959;49.798;9.928;2024-02-26T11:27:38;15.10;;;6.10;;
19623;SDS011;9959;49.798;9.928;2024-02-26T11:30:13;14.93;;;5.63;;
19623;SDS011;9959;49.798;9.928;2024-02-26T11:32:46;9.52;;;5.70;;
19623;SDS011;9959;49.798;9.928;2024-02-26T11:35:14;10.35;;;5.70;;
19623;SDS011;9959;49.798;9.928;2024-02-26T11:37:53;9.98;;;5.30;;
19623;SDS011;9959;49.798;9.928;2024-02-26T11:40:25;8.60;;;5.20;;
19623;SDS011;9959;49.798;9.928;2024-02-26T11:42:53;8.68;;;4.70;;
19623;SDS011;9959;49.798;9.928;2024-02-26T11:48:15;8.55;;;4.90;;
19623;SDS011;9959;49.798;9.928;2024-02-26T11:50:55;8.35;;;4.60;;
19623;SDS011;9959;49.798;9.928;2024-02-26T11:53:25;7.22;;;4.50;;
19623;SDS011;9959;49.798;9.928;2024-02-26T11:58:46;12.20;;;4.95;;
19623;SDS011;9959;49.798;9.928;2024-02-26T12:04:06;9.88;;;4.43;;
19623;SDS011;9959;49.798;9.928;2024-02-26T12:06:42;6.65;;;4.25;;
19623;SDS011;9959;49.798;9.928;2024-02-26T12:09:11;6.50;;;4.25;;
19623;SDS011;9959;49.798;9.928;2024-02-26T12:11:40;10.35;;;4.43;;
19623;SDS011;9959;49.798;9.928;2024-02-26T12:14:09;8.27;;;4.60;;
19623;SDS011;9959;49.798;9.928;2024-02-26T12:16:39;8.35;;;4.57;;
19623;SDS011;9959;49.798;9.928;2024-02-26T12:19:09;8.93;;;3.90;;
19623;SDS011;9959;49.798;9.928;2024-02-26T12:21:37;10.60;;;4.07;;
19623;SDS011;9959;49.798;9.928;2024-02-26T12:24:12;6.65;;;4.28;;
19623;SDS011;9959;49.798;9.928;2024-02-26T12:26:40;10.25;;;4.45;;
19623;SDS011;9959;49.798;9.928;2024-02-26T12:29:12;7.22;;;3.97;;
19623;SDS011;9959;49.798;9.928;2024-02-26T12:31:39;8.00;;;4.10;;
19623;SDS011;9959;49.798;9.928;2024-02-26T12:34:07;9.95;;;4.03;;
19623;SDS011;9959;49.798;9.928;2024-02-26T12:36:36;6.35;;;3.70;;
19623;SDS011;9959;49.798;9.928;2024-02-26T12:39:05;7.55;;;4.60;;
19623;SDS011;9959;49.798;9.928;2024-02-26T12:41:32;8.40;;;3.40;;
19623;SDS011;9959;49.798;9.928;2024-02-26T12:44:00;8.05;;;3.95;;
19623;SDS011;9959;49.798;9.928;2024-02-26T12:46:27;6.93;;;4.05;;
19623;SDS011;9959;49.798;9.928;2024-02-26T12:48:57;5.30;;;3.35;;
19623;SDS011;9959;49.798;9.928;2024-02-26T12:51:26;7.88;;;4.13;;
19623;SDS011;9959;49.798;9.928;2024-02-26T12:53:54;5.70;;;3.47;;
19623;SDS011;9959;49.798;9.928;2024-02-26T12:56:22;5.72;;;3.45;;
19623;SDS011;9959;49.798;9.928;2024-02-26T12:58:50;5.53;;;3.35;;
19623;SDS011;9959;49.798;9.928;2024-02-26T13:01:19;7.57;;;3.70;;
19623;SDS011;9959;49.798;9.928;2024-02-26T13:03:50;5.35;;;3.20;;
19623;SDS011;9959;49.798;9.928;2024-02-26T13:06:19;5.07;;;3.45;;
19623;SDS011;9959;49.798;9.928;2024-02-26T13:08:48;3.72;;;2.80;;
19623;SDS011;9959;49.798;9.928;2024-02-26T13:11:16;6.25;;;3.50;;
19623;SDS011;9959;49.798;9.928;2024-02-26T13:13:47;7.30;;;3.53;;
19623;SDS011;9959;49.798;9.928;2024-02-26T13:16:14;5.85;;;3.58;;
19623;SDS011;9959;49.798;9.928;2024-02-26T13:18:42;5.20;;;3.47;;
19623;SDS011;9959;49.798;9.928;2024-02-26T13:21:10;5.13;;;3.53;;
19623;SDS011;9959;49.798;9.928;2024-02-26T13:23:38;5.03;;;3.58;;
19623;SDS011;9959;49.798;9.928;2024-02-26T13:26:07;9.23;;;3.40;;
19623;SDS011;9959;49.798;9.928;2024-02-26T13:28:34;6.03;;;3.58;;
19623;SDS011;9959;49.798;9.928;2024-02-26T13:31:01;8.35;;;3.67;;
19623;SDS011;9959;49.798;9.928;2024-02-26T13:33:31;6.03;;;3.50;;
19623;SDS011;9959;49.798;9.928;2024-02-26T13:35:59;5.07;;;3.85;;
19623;SDS011;9959;49.798;9.928;2024-02-26T13:38:27;6.88;;;4.00;;
19623;SDS011;9959;49.798;9.928;2024-02-26T13:40:55;5.95;;;3.92;;
19623;SDS011;9959;49.798;9.928;2024-02-26T13:43:22;6.10;;;3.20;;
19623;SDS011;9959;49.798;9.928;2024-02-26T13:45:49;5.63;;;3.50;;
19623;SDS011;9959;49.798;9.928;2024-02-26T13:48:16;6.03;;;3.30;;
19623;SDS011;9959;49.798;9.928;2024-02-26T13:50:45;7.40;;;3.60;;
19623;SDS011;9959;49.798;9.928;2024-02-26T13:53:13;5.70;;;3.38;;
19623;SDS011;9959;49.798;9.928;2024-02-26T13:55:40;5.32;;;3.65;;
19623;SDS011;9959;49.798;9.928;2024-02-26T13:58:13;5.40;;;3.55;;
19623;SDS011;9959;49.798;9.928;2024-02-26T14:00:41;5.43;;;3.90;;
19623;SDS011;9959;49.798;9.928;2024-02-26T14:03:09;6.20;;;3.55;;
19623;SDS011;9959;49.798;9.928;2024-02-26T14:05:37;5.78;;;3.60;;
19623;SDS011;9959;49.798;9.928;2024-02-26T14:08:04;7.35;;;3.80;;
19623;SDS011;9959;49.798;9.928;2024-02-26T14:10:32;5.15;;;3.50;;
19623;SDS011;9959;49.798;9.928;2024-02-26T14:12:59;5.03;;;3.50;;
19623;SDS011;9959;49.798;9.928;2024-02-26T14:15:27;6.22;;;3.60;;
19623;SDS011;9959;49.798;9.928;2024-02-26T14:17:55;7.70;;;3.40;;
19623;SDS011;9959;49.798;9.928;2024-02-26T14:20:24;6.93;;;3.55;;
19623;SDS011;9959;49.798;9.928;2024-02-26T14:22:52;6.25;;;3.45;;
19623;SDS011;9959;49.798;9.928;2024-02-26T14:25:22;6.32;;;3.92;;
19623;SDS011;9959;49.798;9.928;2024-02-26T14:27:52;4.50;;;3.30;;
19623;SDS011;9959;49.798;9.928;2024-02-26T14:30:19;4.43;;;2.78;;
19623;SDS011;9959;49.798;9.928;2024-02-26T14:32:46;5.00;;;3.42;;
19623;SDS011;9959;49.798;9.928;2024-02-26T14:35:13;5.78;;;3.08;;
19623;SDS011;9959;49.798;9.928;2024-02-26T14:37:43;5.18;;;3.15;;
19623;SDS011;9959;49.798;9.928;2024-02-26T14:40:15;5.25;;;3.40;;
19623;SDS011;9959;49.798;9.928;2024-02-26T14:42:43;7.72;;;3.65;;
19623;SDS011;9959;49.798;9.928;2024-02-26T14:45:10;6.97;;;3.47;;
19623;SDS011;9959;49.798;9.928;2024-02-26T14:47:38;5.80;;;3.47;;
19623;SDS011;9959;49.798;9.928;2024-02-26T14:50:06;5.38;;;3.55;;
19623;SDS011;9959;49.798;9.928;2024-02-26T14:52:33;5.07;;;3.20;;
19623;SDS011;9959;49.798;9.928;2024-02-26T14:55:00;5.88;;;3.70;;
19623;SDS011;9959;49.798;9.928;2024-02-26T14:57:27;9.23;;;3.80;;
19623;SDS011;9959;49.798;9.928;2024-02-26T14:59:54;7.03;;;3.30;;
19623;SDS011;9959;49.798;9.928;2024-02-26T15:02:21;4.93;;;3.28;;